GGRYZ EGJB-EGJA

Flight info

Callsign GGRYZ
Flight time 0h 12m
Altitude 3000
Route VFR DCT EGJA
Aircraft BE33/L-V/N

Departure

Time 2026-05-06 19:17
Airport Guernsey Airport (EGJB)

Arrival

Time 2026-05-06 19:30
Airport Alderney Airport (EGJA)
Time Latitude Longitude Altitude Speed Heading
2026-05-06 19:02 49.43353 -2.58949 327 ft 0 kts 358°
2026-05-06 19:08 49.43365 -2.58951 326 ft 4 kts 344°
2026-05-06 19:08 49.43383 -2.58990 326 ft 6 kts 276°
2026-05-06 19:09 49.43385 -2.59057 327 ft 7 kts 266°
2026-05-06 19:09 49.43375 -2.59124 328 ft 6 kts 261°
2026-05-06 19:09 49.43373 -2.59189 329 ft 6 kts 268°
2026-05-06 19:09 49.43372 -2.59259 330 ft 7 kts 268°
2026-05-06 19:10 49.43370 -2.59343 329 ft 9 kts 267°
2026-05-06 19:10 49.43366 -2.59455 328 ft 12 kts 267°
2026-05-06 19:10 49.43362 -2.59594 325 ft 14 kts 268°
2026-05-06 19:10 49.43360 -2.59665 324 ft 6 kts 267°
2026-05-06 19:11 49.43355 -2.59747 323 ft 9 kts 255°
2026-05-06 19:11 49.43344 -2.59854 319 ft 13 kts 284°
2026-05-06 19:11 49.43340 -2.60026 307 ft 19 kts 267°
2026-05-06 19:11 49.43334 -2.60247 292 ft 22 kts 268°
2026-05-06 19:12 49.43327 -2.60463 288 ft 16 kts 266°
2026-05-06 19:12 49.43328 -2.60618 291 ft 14 kts 281°
2026-05-06 19:12 49.43343 -2.60750 295 ft 12 kts 279°
2026-05-06 19:12 49.43354 -2.60851 301 ft 7 kts 279°
2026-05-06 19:13 49.43360 -2.60899 301 ft 2 kts 278°
2026-05-06 19:13 49.43365 -2.60943 304 ft 7 kts 279°
2026-05-06 19:13 49.43362 -2.61022 306 ft 9 kts 264°
2026-05-06 19:13 49.43359 -2.61115 307 ft 8 kts 270°
2026-05-06 19:14 49.43358 -2.61138 307 ft 0 kts 269°
2026-05-06 19:15 49.43358 -2.61161 307 ft 7 kts 269°
2026-05-06 19:15 49.43359 -2.61244 308 ft 8 kts 287°
2026-05-06 19:16 49.43391 -2.61309 310 ft 7 kts 313°
2026-05-06 19:16 49.43433 -2.61358 311 ft 8 kts 354°
2026-05-06 19:16 49.43467 -2.61302 311 ft 10 kts 89°
2026-05-06 19:16 49.43480 -2.60974 306 ft 58 kts 87°
2026-05-06 19:17 49.43489 -2.60205 421 ft 76 kts 86°
2026-05-06 19:17 49.43511 -2.59396 667 ft 80 kts 86°
2026-05-06 19:17 49.43538 -2.58484 887 ft 87 kts 86°
2026-05-06 19:17 49.43715 -2.57547 1001 ft 104 kts 62°
2026-05-06 19:18 49.44012 -2.56925 967 ft 113 kts 50°
2026-05-06 19:18 49.44582 -2.56060 910 ft 118 kts 44°
2026-05-06 19:18 49.45296 -2.55511 908 ft 119 kts
2026-05-06 19:18 49.46326 -2.55105 961 ft 116 kts 37°
2026-05-06 19:19 49.46946 -2.54325 984 ft 116 kts 43°
2026-05-06 19:19 49.47559 -2.53497 985 ft 118 kts 44°
2026-05-06 19:19 49.47973 -2.52921 986 ft 119 kts 44°
2026-05-06 19:19 49.48787 -2.51771 986 ft 119 kts 45°
2026-05-06 19:20 49.49191 -2.51197 984 ft 119 kts 44°
2026-05-06 19:20 49.49774 -2.50367 1126 ft 107 kts 45°
2026-05-06 19:20 49.50290 -2.49630 1326 ft 95 kts 44°
2026-05-06 19:20 49.50747 -2.48978 1520 ft 85 kts 45°
2026-05-06 19:21 49.51154 -2.48397 1712 ft 74 kts 45°
2026-05-06 19:21 49.51512 -2.47885 1886 ft 69 kts 46°
2026-05-06 19:21 49.51876 -2.47362 2084 ft 75 kts 46°
2026-05-06 19:21 49.52269 -2.46797 2283 ft 80 kts 46°
2026-05-06 19:22 49.52686 -2.46201 2489 ft 84 kts 45°
2026-05-06 19:22 49.53124 -2.45573 2695 ft 88 kts 45°
2026-05-06 19:22 49.53577 -2.44924 2903 ft 90 kts 45°
2026-05-06 19:22 49.54063 -2.44225 2997 ft 105 kts 45°
2026-05-06 19:23 49.54637 -2.43401 3006 ft 120 kts 44°
2026-05-06 19:23 49.55275 -2.42485 3008 ft 129 kts 44°
2026-05-06 19:23 49.55948 -2.41519 3006 ft 135 kts 44°
2026-05-06 19:23 49.56641 -2.40525 3008 ft 138 kts 44°
2026-05-06 19:24 49.57338 -2.39523 3013 ft 140 kts 44°
2026-05-06 19:24 49.58052 -2.38497 3012 ft 141 kts 44°
2026-05-06 19:24 49.58771 -2.37464 3013 ft 142 kts 44°
2026-05-06 19:24 49.59493 -2.36425 3011 ft 142 kts 44°
2026-05-06 19:25 49.60216 -2.35385 3013 ft 142 kts 44°
2026-05-06 19:25 49.60937 -2.34347 3012 ft 142 kts 44°
2026-05-06 19:25 49.61688 -2.33379 3012 ft 141 kts 26°
2026-05-06 19:25 49.62664 -2.33363 3012 ft 144 kts 350°
2026-05-06 19:26 49.63650 -2.33684 3011 ft 146 kts 350°
2026-05-06 19:26 49.64662 -2.33982 2888 ft 149 kts 351°
2026-05-06 19:26 49.65690 -2.34266 2762 ft 150 kts 351°
2026-05-06 19:26 49.66721 -2.34548 2638 ft 151 kts 352°
2026-05-06 19:27 49.67761 -2.34831 2512 ft 152 kts 351°
2026-05-06 19:27 49.68798 -2.34916 2384 ft 149 kts 19°
2026-05-06 19:27 49.69491 -2.33833 2258 ft 145 kts 70°
2026-05-06 19:27 49.69710 -2.32323 2107 ft 143 kts 88°
2026-05-06 19:28 49.69682 -2.30784 1817 ft 145 kts 94°
2026-05-06 19:28 49.69631 -2.29248 1543 ft 145 kts 90°
2026-05-06 19:28 49.69720 -2.27743 1294 ft 131 kts 78°
2026-05-06 19:28 49.69950 -2.26531 1090 ft 103 kts 72°
2026-05-06 19:29 49.70140 -2.25574 847 ft 87 kts 76°
2026-05-06 19:29 49.70271 -2.24714 664 ft 78 kts 79°
2026-05-06 19:29 49.70378 -2.23915 524 ft 75 kts 80°
2026-05-06 19:29 49.70470 -2.23136 427 ft 73 kts 79°
2026-05-06 19:30 49.70565 -2.22383 331 ft 70 kts 79°
2026-05-06 19:30 49.70644 -2.21704 290 ft 54 kts 80°
2026-05-06 19:30 49.70673 -2.21459 291 ft 6 kts 86°
2026-05-06 19:30 49.70678 -2.21454 291 ft 3 kts 250°
2026-05-06 19:31 49.70668 -2.21508 290 ft 8 kts 262°
2026-05-06 19:31 49.70711 -2.21557 288 ft 10 kts 339°
2026-05-06 19:31 49.70814 -2.21427 281 ft 10 kts 61°
2026-05-06 19:32 49.70840 -2.21353 282 ft 5 kts 135°
2026-05-06 19:32 49.70803 -2.21370 284 ft 6 kts 213°
2026-05-06 19:32 49.70777 -2.21401 287 ft 5 kts 222°
2026-05-06 19:32 49.70771 -2.21410 287 ft 0 kts 221°